Latest Weather Observations for Mount Hotham

IDV60801

Issued at 7:02 pm EST Thursday 3 September 2015 (issued every 30 minutes, with the page automatically refreshed every 10 minutes)

About weather observations | Map of weather stations | Latest weather observations for VIC | Other Formats
Station Details ID: 083085 Name: MOUNT HOTHAM Lat: -36.98 Lon: 147.13 Height: 1849.0 m
Data from the previous 72 hours. | See also: Recent months at Mount Hotham
Date/Time
EST
Temp
°C
App
Temp
°C
Dew
Point
Rel
Hum
%
Delta-T
°C
Wind Press
QNH
hPa
Press
MSL
hPa
Rain
since 9 am
mm
Dir
 
Spd
km/h
Gust
km/h
Spd
kts
Gust
kts
03/07:00pm 0.9 -12.2 0.8 99 0.0 ESE 59 70 32 38 - - 3.8
03/06:30pm 0.7 -12.8 0.6 99 0.0 ESE 61 69 33 37 - - 3.8
03/06:00pm 0.6 -13.3 0.5 99 0.0 ESE 63 74 34 40 - - 3.8
03/05:30pm 0.6 -14.4 0.5 99 0.0 ESE 69 78 37 42 - - 3.8
03/05:00pm 0.3 -14.8 0.0 98 0.1 ESE 69 76 37 41 - - 3.8
03/04:30pm 0.6 -16.2 0.3 98 0.1 ESE 78 95 42 51 - - 3.8
03/04:14pm 0.5 -14.5 0.4 99 0.0 ESE 69 87 37 47 - - 3.8
03/04:00pm 0.5 -14.2 0.4 99 0.0 ESE 67 76 36 41 - - 3.8
03/03:30pm 0.3 -15.8 -0.1 97 0.2 ESE 74 87 40 47 - - 3.4
03/03:00pm 0.2 -15.9 -0.1 98 0.1 ESE 74 85 40 46 - - 3.0
03/02:30pm 0.1 -15.2 0.0 99 0.0 ESE 70 85 38 46 - - 2.2
03/02:00pm 0.1 -13.1 0.0 99 0.0 ESE 59 69 32 37 - - 1.2
03/01:30pm -0.1 -12.8 -0.2 99 0.0 ESE 56 65 30 35 - - 0.2
03/01:00pm -0.2 -12.1 -0.3 99 0.0 ESE 52 63 28 34 - - 0.0
03/12:30pm -0.1 -11.2 -0.2 99 0.0 ESE 48 54 26 29 - - 0.0
03/12:00pm -0.4 -13.1 -0.5 99 0.0 ESE 56 67 30 36 - - 0.0
03/11:30am 0.3 -12.3 0.2 99 0.0 ESE 56 69 30 37 - - 0.0
03/11:00am -0.2 -12.5 -0.3 99 0.0 ESE 54 70 29 38 - - 0.0
03/10:30am -0.2 -11.7 -0.3 99 0.0 ESE 50 59 27 32 - - 0.0
03/10:00am 0.1 -12.1 0.0 99 0.0 ESE 54 70 29 38 - - 0.0
03/09:30am -0.9 -15.0 -1.0 99 0.0 ESE 63 76 34 41 - - 0.0
03/09:00am -0.9 -13.3 -1.2 98 0.1 ESE 54 72 29 39 - - 0.0
03/08:34am -1.0 -11.5 -1.1 99 0.0 ESE 44 65 24 35 - - 0.0
03/08:30am -1.2 -11.8 -1.5 98 0.1 ESE 44 61 24 33 - - 0.0
03/08:09am -1.3 -11.7 -1.6 98 0.0 ESE 43 61 23 33 - - 0.0
03/08:00am -1.4 -12.0 -1.7 98 0.0 ESE 44 54 24 29 - - 0.0
03/07:51am -1.4 -12.4 -1.7 98 0.0 ESE 46 65 25 35 - - 0.0
03/07:30am -1.4 -13.5 -1.7 98 0.0 ESE 52 65 28 35 - - 0.0
03/07:00am -1.8 -13.2 -2.1 98 0.0 ESE 48 67 26 36 - - 0.0
03/06:53am -1.5 -12.5 -1.8 98 0.0 ESE 46 67 25 36 - - 0.0
03/06:30am -0.1 -10.9 -0.2 99 0.0 ESE 46 59 25 32 - - 0.0
03/06:00am 1.2 -9.4 1.1 99 0.0 ESE 46 57 25 31 - - 0.0
03/05:30am 1.6 -8.9 1.5 99 0.0 ESE 46 57 25 31 - - 0.0
03/05:00am -0.2 -8.9 -0.3 99 0.0 ESE 35 46 19 25 - - 0.0
03/04:30am -0.3 -8.4 -0.4 99 0.0 ENE 32 37 17 20 - - 0.0
03/04:00am -0.2 -6.4 -0.3 99 0.0 ENE 22 28 12 15 - - 0.0
03/03:30am -0.2 -5.8 -0.3 99 0.0 ENE 19 26 10 14 - - 0.0
03/03:00am 0.3 -4.5 0.2 99 0.0 ENE 15 20 8 11 - - 0.0
03/02:30am 0.6 -4.5 0.5 99 0.0 NNE 17 22 9 12 - - 0.0
03/02:00am 0.3 -5.5 0.2 99 0.0 NNE 20 24 11 13 - - 0.0
03/01:30am 0.2 -5.0 0.1 99 0.0 NE 17 20 9 11 - - 0.0
03/01:00am 0.6 -5.1 0.5 99 0.0 N 20 24 11 13 - - 0.0
03/12:30am 0.7 -5.4 0.6 99 0.0 N 22 28 12 15 - - 0.0
03/12:00am 0.5 -7.1 0.4 99 0.0 NNW 30 41 16 22 - - 0.0
 
Date/Time
EST
Temp
°C
App
Temp
°C
Dew
Point
Rel
Hum
%
Delta-T
°C
Wind Press
QNH
hPa
Press
MSL
hPa
Rain
since 9 am
mm
Dir
 
Spd
km/h
Gust
km/h
Spd
kts
Gust
kts
02/11:30pm 0.3 -7.7 0.2 99 0.0 NNW 32 37 17 20 - - 0.0
02/11:00pm -0.1 -7.4 -0.2 99 0.0 NW 28 35 15 19 - - 0.0
02/10:30pm 0.0 -7.3 -0.1 99 0.0 NW 28 33 15 18 - - 0.0
02/10:00pm 1.1 -5.2 -0.8 87 0.8 NW 22 32 12 17 - - 0.0
02/09:30pm 1.6 -5.2 -1.5 80 1.2 NW 24 35 13 19 - - 0.0
02/09:00pm 1.7 -7.2 -1.9 77 1.4 NW 35 43 19 23 - - 0.0
02/08:30pm 2.4 -7.4 -2.9 68 2.1 NW 39 48 21 26 - - 0.0
02/08:26pm 2.2 -7.5 -2.5 71 1.8 NW 39 50 21 27 - - 0.0
02/08:17pm 2.1 -5.9 -2.2 73 1.7 WNW 30 50 16 27 - - 0.0
02/08:00pm 2.7 -5.0 -2.6 68 2.1 NW 28 35 15 19 - - 0.0
02/07:30pm 2.7 -5.9 -2.4 69 2.0 NNW 33 39 18 21 - - 0.0
02/07:00pm 2.6 -5.1 -2.7 68 2.1 NNW 28 33 15 18 - - 0.0
02/06:30pm 2.9 -4.4 -3.2 64 2.4 NNW 26 37 14 20 - - 0.0
02/06:00pm 2.8 -4.2 -3.5 63 2.4 NNW 24 28 13 15 - - 0.0
02/05:30pm 2.8 -3.7 -2.5 68 2.1 NNW 22 30 12 16 - - 0.0
02/05:00pm 2.7 -4.5 -2.2 70 2.0 NW 26 28 14 15 - - 0.0
02/04:30pm 3.1 -3.6 -4.3 58 2.8 NW 22 24 12 13 - - 0.0
02/04:00pm 3.3 -4.2 -4.9 55 3.1 NW 26 33 14 18 - - 0.0
02/03:30pm 3.4 -3.1 -2.3 66 2.3 NW 22 28 12 15 - - 0.0
02/03:00pm 3.2 -3.2 -1.9 69 2.1 WNW 22 32 12 17 - - 0.0
02/02:30pm 3.1 -4.0 -1.6 71 1.9 WNW 26 33 14 18 - - 0.0
02/02:00pm 3.5 -4.1 -2.4 65 2.4 NW 28 37 15 20 - - 0.0
02/01:30pm 3.8 -5.2 -6.2 48 3.6 NW 33 43 18 23 - - 0.0
02/01:00pm 3.8 -4.1 -4.4 55 3.1 WNW 28 32 15 17 - - 0.0
02/12:30pm 4.1 -3.8 -5.1 51 3.5 NW 28 35 15 19 - - 0.0
02/12:00pm 3.5 -5.3 -4.7 55 3.1 NW 33 37 18 20 - - 0.0
02/11:30am 3.4 -5.6 -8.6 41 4.3 NW 32 37 17 20 - - 0.0
02/11:00am 3.3 -5.8 -9.0 40 4.3 NW 32 41 17 22 - - 0.0
02/10:30am 3.5 -5.7 -10.5 35 4.8 NW 32 39 17 21 - - 0.0
02/10:00am 2.9 -4.9 -13.3 29 5.1 NW 24 28 13 15 - - 0.0
02/09:30am 3.2 -4.7 -14.0 27 5.3 WNW 24 30 13 16 - - 0.0
02/09:00am 2.2 -6.9 -16.2 24 5.2 NW 30 35 16 19 - - 0.0
02/08:30am 1.5 -7.4 -19.0 20 5.3 NW 28 33 15 18 - - 0.0
02/08:00am 2.0 -6.2 -21.1 16 5.8 WNW 24 30 13 16 - - 0.0
02/07:30am 1.2 -6.5 -19.2 20 5.2 WNW 22 26 12 14 - - 0.0
02/07:00am 0.7 -6.7 -20.2 19 5.2 WNW 20 22 11 12 - - 0.0
02/06:30am 1.8 -6.5 -24.5 12 6.0 WNW 24 33 13 18 - - 0.0
02/06:00am 1.6 -7.0 -23.0 14 5.8 WNW 26 32 14 17 - - 0.0
02/05:30am 1.3 -6.6 -23.2 14 5.7 WNW 22 26 12 14 - - 0.0
02/05:00am 0.6 -7.3 -23.8 14 5.5 WNW 22 24 12 13 - - 0.0
02/04:30am -0.4 -8.1 -19.5 22 4.7 WNW 22 24 12 13 - - 0.0
02/04:00am -0.3 -8.8 -19.4 22 4.7 WNW 26 32 14 17 - - 0.0
02/03:30am 0.2 -8.6 -17.9 24 4.7 WNW 28 32 15 17 - - 0.0
02/03:00am 0.1 -9.1 -17.5 25 4.6 WNW 30 33 16 18 - - 0.0
02/02:30am -0.1 -9.7 -18.7 23 4.7 WNW 32 35 17 19 - - 0.0
02/02:00am -0.2 -8.7 -20.4 20 4.9 WNW 26 32 14 17 - - 0.0
02/01:30am 0.4 -7.8 -21.8 17 5.2 WNW 24 30 13 16 - - 0.0
02/01:00am -0.7 -9.8 -16.1 30 4.1 WNW 30 35 16 19 - - 0.0
02/12:30am -0.5 -10.1 -14.4 34 3.9 WNW 33 37 18 20 - - 0.0
02/12:00am 0.4 -8.7 -16.4 27 4.6 WNW 30 39 16 21 - - 0.0
 
Date/Time
EST
Temp
°C
App
Temp
°C
Dew
Point
Rel
Hum
%
Delta-T
°C
Wind Press
QNH
hPa
Press
MSL
hPa
Rain
since 9 am
mm
Dir
 
Spd
km/h
Gust
km/h
Spd
kts
Gust
kts
01/11:30pm 1.1 -7.0 -18.7 21 5.1 WNW 24 30 13 16 - - 0.0
01/11:00pm 0.3 -7.9 -12.7 37 3.9 WNW 26 32 14 17 - - 0.0
01/10:30pm -0.1 -7.3 -5.7 66 2.0 WNW 24 28 13 15 - - 0.0
01/10:00pm -1.8 -8.3 -5.6 75 1.2 WNW 20 26 11 14 - - 0.0
01/09:30pm -1.2 -7.2 -1.3 99 0.0 WNW 20 26 11 14 - - 0.0
01/09:00pm 0.6 -5.5 -3.7 73 1.6 W 19 22 10 12 - - 0.0
01/08:30pm 1.2 -4.4 -6.1 58 2.7 W 15 19 8 10 - - 0.0
01/08:00pm 1.7 -2.7 -5.7 58 2.8 WNW 9 11 5 6 - - 0.0
01/07:30pm -0.4 -4.2 -1.0 96 0.2 WNW 9 15 5 8 - - 0.0
01/07:00pm 0.6 -3.2 -3.5 74 1.6 W 7 11 4 6 - - 0.0
01/06:30pm 0.7 -1.5 -1.7 84 1.0 CALM 0 0 0 0 - - 0.0
01/06:00pm 0.1 -3.2 -1.2 91 0.5 WSW 6 13 3 7 - - 0.0
01/05:30pm 0.5 -3.6 -0.2 95 0.3 WSW 11 17 6 9 - - 0.0
01/05:00pm 1.2 -2.9 0.0 92 0.5 W 11 15 6 8 - - 0.0
01/04:30pm 1.6 -3.3 -0.2 88 0.7 WSW 15 19 8 10 - - 0.0
01/04:00pm 3.2 -0.5 -0.1 79 1.4 WSW 9 15 5 8 - - 0.0
01/03:30pm 3.2 -0.7 -1.2 73 1.8 WSW 9 15 5 8 - - 0.0
01/03:00pm 2.8 -1.7 -3.5 63 2.4 S 11 19 6 10 - - 0.0
01/02:30pm 2.8 -2.3 -2.1 70 2.0 SW 15 20 8 11 - - 0.0
01/02:00pm 2.7 -1.9 -0.9 77 1.5 WSW 13 17 7 9 - - 0.0
01/01:30pm 2.4 -2.9 -0.9 79 1.4 WSW 17 22 9 12 - - 0.0
01/01:00pm 1.9 -3.5 -1.0 81 1.2 WSW 17 20 9 11 - - 0.0
01/12:30pm 1.9 -3.6 -1.9 76 1.5 WSW 17 20 9 11 - - 0.0
01/12:00pm 1.3 -4.1 -1.3 83 1.0 WSW 17 20 9 11 - - 0.0
01/11:30am 1.5 -4.0 -2.4 75 1.6 WSW 17 20 9 11 - - 0.0
01/11:00am 1.2 -5.2 -7.1 54 2.9 SSW 19 24 10 13 - - 0.0
01/10:30am 1.5 -5.3 -11.2 38 4.1 S 19 22 10 12 - - 0.0
01/10:00am 0.5 -5.3 -8.2 52 2.9 SSE 15 22 8 12 - - 0.0
01/09:30am -0.5 -6.7 -8.4 55 2.6 S 17 20 9 11 - - 0.0
01/09:00am -0.7 -7.3 -9.6 51 2.8 SSE 19 24 10 13 - - 0.2
01/08:30am -1.1 -8.4 -10.7 48 2.9 SSE 22 24 12 13 - - 0.2
01/08:00am -1.0 -7.8 -11.4 45 3.1 SSE 19 22 10 12 - - 0.2
01/07:30am -0.5 -7.8 -11.5 43 3.3 SSE 22 28 12 15 - - 0.2
01/07:00am -0.3 -7.8 -14.6 33 4.0 SSE 22 30 12 16 - - 0.2
01/06:30am -0.9 -8.4 -14.1 36 3.7 SSE 22 32 12 17 - - 0.2
01/06:00am -1.0 -9.2 -13.5 38 3.5 SSE 26 33 14 18 - - 0.2
01/05:30am -1.1 -9.7 -12.9 40 3.4 S 28 33 15 18 - - 0.2
01/05:00am -1.8 -9.5 -10.8 50 2.6 S 24 28 13 15 - - 0.2
01/04:30am -1.7 -8.2 -6.2 71 1.5 SSW 20 26 11 14 - - 0.2
01/04:00am -1.9 -8.5 -3.2 91 0.4 SW 22 28 12 15 - - 0.2
01/03:30am -1.6 -8.9 -2.6 93 0.3 WSW 26 32 14 17 - - 0.2
01/03:00am -1.7 -8.5 -2.1 97 0.1 WSW 24 28 13 15 - - 0.2
01/02:30am -1.5 -8.4 -2.5 93 0.3 WSW 24 30 13 16 - - 0.2
01/02:00am -1.4 -8.0 -3.6 85 0.7 WSW 22 24 12 13 - - 0.2
01/01:30am -1.4 -8.0 -3.4 86 0.7 WSW 22 26 12 14 - - 0.2
01/01:00am -1.4 -8.8 -3.9 83 0.8 WSW 26 30 14 16 - - 0.2
01/12:30am -1.8 -8.1 -4.0 85 0.7 WSW 20 24 11 13 - - 0.2
01/12:00am -1.8 -7.9 -4.0 85 0.7 WSW 19 22 10 12 - - 0.2
 
Date/Time
EST
Temp
°C
App
Temp
°C
Dew
Point
Rel
Hum
%
Delta-T
°C
Wind Press
QNH
hPa
Press
MSL
hPa
Rain
since 9 am
mm
Dir
 
Spd
km/h
Gust
km/h
Spd
kts
Gust
kts
31/11:30pm -1.5 -6.6 -5.2 76 1.2 SW 13 22 7 12 - - 0.2
31/11:00pm -0.6 -5.6 -8.3 56 2.5 S 11 15 6 8 - - 0.2
31/10:30pm -0.3 -5.5 -5.7 67 1.9 SSW 13 17 7 9 - - 0.2
31/10:00pm 0.1 -4.8 -7.4 57 2.6 SSW 11 17 6 9 - - 0.2
31/09:30pm -0.6 -4.8 -3.8 79 1.2 WSW 9 13 5 7 - - 0.2
31/09:00pm -1.1 -5.3 -1.2 99 0.0 WSW 11 15 6 8 - - 0.2
31/08:30pm -1.1 -4.6 -1.4 98 0.1 SW 7 9 4 5 - - 0.2
31/08:00pm -0.3 -3.7 -0.6 98 0.1 W 7 9 4 5 - - 0.2
31/07:30pm -0.1 -3.5 -0.5 97 0.2 S 7 9 4 5 - - 0.2

Other Formats:

Comma delimited format used in spreadsheet applications
http://www.bom.gov.au/fwo/IDV60801/IDV60801.94906.axf

JavaScript Object Notation format (JSON) in row-major order
http://www.bom.gov.au/fwo/IDV60801/IDV60801.94906.json